Time;durP1;ratioP1;P1;durP2;ratioP2;P2;SDS_P1;SDS_P2;PMS_P1;PMS_P2;Temp;Humidity;BMP_temperature;BMP_pressure;BME280_temperature;BME280_humidity;BME280_pressure;Samples;Min_cycle;Max_cycle;Signal;HPM_P1;HPM_P2
2022/07/01 00:03:49;;;;;;;;;;;;;;;19.52;99.54;95454.31;10476694;28;1836;-73
2022/07/01 00:08:53;;;;;;;;;;;;;;;19.52;100.00;95470.69;10472222;28;1835;-74
2022/07/01 00:13:57;;;;;;;;;;;;;;;19.19;100.00;95468.78;10464662;28;1857;-75
2022/07/01 00:19:00;;;;;;;;;;;;;;;19.16;100.00;95458.56;10465630;28;2210;-79
2022/07/01 00:24:04;;;;;;;;;;;;;;;19.06;100.00;95467.94;10468571;28;1855;-76
2022/07/01 00:29:08;;;;;;;;;;;;;;;18.95;100.00;95493.19;10476707;28;1896;-73
2022/07/01 00:34:12;;;;;;;;;;;;;;;19.05;100.00;95487.34;10476933;28;1968;-74
2022/07/01 00:39:17;;;;;;;;;;;;;;;18.97;100.00;95494.47;10474840;28;1971;-75
2022/07/01 00:44:20;;;;;;;;;;;;;;;19.01;100.00;95511.72;10468073;28;2242;-73
2022/07/01 00:49:24;;;;;;;;;;;;;;;18.79;100.00;95515.59;10475125;28;1963;-74
2022/07/01 00:54:29;;;;;;;;;;;;;;;18.71;100.00;95505.56;10473936;28;1954;-74
2022/07/01 00:59:34;;;;;;;;;;;;;;;18.48;100.00;95506.97;10474238;28;1981;-75
2022/07/01 01:04:38;;;;;;;;;;;;;;;18.58;99.28;95531.09;10478552;28;1936;-75
2022/07/01 01:09:44;;;;;;;;;;;;;;;18.79;96.54;95531.94;10475193;28;2162;-74
2022/07/01 01:14:48;;;;;;;;;;;;;;;18.80;93.99;95547.13;10472290;28;1962;-77
2022/07/01 01:20:00;;;;;;;;;;;;;;;18.96;90.98;95535.63;10480090;28;2060;-74
2022/07/01 01:25:13;;;;;;;;;;;;;;;18.75;90.18;95538.38;10474560;28;1957;-75
2022/07/01 01:30:37;;;;;;;;;;;;;;;18.86;89.65;95551.25;10475632;28;1973;-77
2022/07/01 01:35:40;;;;;;;;;;;;;;;18.76;89.57;95543.47;10475266;28;1939;-73
2022/07/01 01:40:44;;;;;;;;;;;;;;;19.02;88.81;95531.59;10479058;28;1977;-76
2022/07/01 01:45:47;;;;;;;;;;;;;;;18.67;89.61;95529.13;10473786;28;1986;-74
2022/07/01 01:50:51;;;;;;;;;;;;;;;18.56;91.63;95511.56;10473263;28;1947;-75
2022/07/01 01:55:55;;;;;;;;;;;;;;;18.62;92.02;95515.69;10473830;28;2172;-77
2022/07/01 02:00:58;;;;;;;;;;;;;;;18.76;91.44;95499.91;10473671;28;1975;-74
2022/07/01 02:06:02;;;;;;;;;;;;;;;18.63;92.56;95500.94;10472677;28;1997;-74
2022/07/01 02:11:06;;;;;;;;;;;;;;;18.88;92.23;95508.13;10468631;28;2046;-75
2022/07/01 02:16:10;;;;;;;;;;;;;;;18.94;91.64;95527.00;10474068;28;1914;-75
2022/07/01 02:21:13;;;;;;;;;;;;;;;19.00;91.40;95531.91;10470966;28;1986;-74
2022/07/01 02:26:16;;;;;;;;;;;;;;;18.99;92.43;95538.50;10472762;28;1821;-77
2022/07/01 02:31:20;;;;;;;;;;;;;;;18.68;94.43;95552.50;10473711;28;1923;-78
2022/07/01 02:36:24;;;;;;;;;;;;;;;19.03;92.98;95566.69;10476049;28;1864;-77
2022/07/01 02:41:27;;;;;;;;;;;;;;;18.89;93.97;95568.84;10475302;28;1974;-75
2022/07/01 02:46:31;;;;;;;;;;;;;;;18.84;93.61;95578.03;10470144;28;2030;-75
2022/07/01 02:51:35;;;;;;;;;;;;;;;18.92;93.94;95583.75;10472976;28;1900;-75
2022/07/01 02:56:39;;;;;;;;;;;;;;;18.66;95.48;95586.63;10466455;28;1923;-76
2022/07/01 03:01:43;;;;;;;;;;;;;;;18.70;95.12;95593.81;10469301;28;1969;-75
2022/07/01 03:06:46;;;;;;;;;;;;;;;18.66;95.47;95592.84;10471182;28;1910;-76
2022/07/01 03:11:50;;;;;;;;;;;;;;;18.53;96.38;95588.44;10470774;28;1949;-76
2022/07/01 03:16:54;;;;;;;;;;;;;;;18.51;96.70;95587.97;10469605;28;1959;-75
2022/07/01 03:21:58;;;;;;;;;;;;;;;18.86;95.22;95599.50;10471293;28;2002;-76
2022/07/01 03:27:01;;;;;;;;;;;;;;;18.70;95.15;95598.44;10472508;28;1896;-76
2022/07/01 03:32:05;;;;;;;;;;;;;;;18.54;95.68;95606.38;10467866;28;1963;-76
2022/07/01 03:37:09;;;;;;;;;;;;;;;18.64;95.25;95603.28;10475738;28;1885;-76
2022/07/01 03:42:13;;;;;;;;;;;;;;;18.57;96.29;95605.69;10467907;28;1939;-77
2022/07/01 03:47:16;;;;;;;;;;;;;;;18.65;95.38;95596.72;10472105;28;2339;-76
2022/07/01 03:52:20;;;;;;;;;;;;;;;18.60;96.03;95610.50;10475303;28;1930;-77
2022/07/01 03:57:24;;;;;;;;;;;;;;;18.37;98.32;95607.25;10518055;28;1904;-79
2022/07/01 04:02:28;;;;;;;;;;;;;;;18.50;98.09;95627.19;10525730;28;1923;-77
2022/07/01 04:07:32;;;;;;;;;;;;;;;18.78;96.18;95622.94;10511636;28;1878;-76
2022/07/01 04:12:36;;;;;;;;;;;;;;;19.07;94.91;95616.63;10497369;28;1963;-77
2022/07/01 04:17:39;;;;;;;;;;;;;;;19.13;94.46;95625.41;10485297;28;1991;-74
2022/07/01 04:22:43;;;;;;;;;;;;;;;19.09;94.39;95608.16;10485430;28;1946;-77
2022/07/01 04:27:47;;;;;;;;;;;;;;;19.01;94.94;95598.09;10520925;28;1568;-78
2022/07/01 04:32:51;;;;;;;;;;;;;;;19.07;94.07;95574.97;10527469;28;2089;-77
2022/07/01 04:37:57;;;;;;;;;;;;;;;19.10;94.00;95574.31;10533297;28;2069;-79
2022/07/01 04:43:01;;;;;;;;;;;;;;;19.07;94.35;95588.59;10508820;28;2276;-73
2022/07/01 04:48:04;;;;;;;;;;;;;;;19.18;92.87;95603.41;10478716;28;1887;-73
2022/07/01 04:53:08;;;;;;;;;;;;;;;19.34;92.09;95595.44;10477216;28;2085;-74
2022/07/01 04:58:12;;;;;;;;;;;;;;;19.04;92.83;95573.72;10475676;28;2029;-76
2022/07/01 05:03:16;;;;;;;;;;;;;;;18.76;94.50;95553.56;10489315;28;1957;-75
2022/07/01 05:08:19;;;;;;;;;;;;;;;18.71;94.11;95542.91;10465287;28;2088;-74
2022/07/01 05:13:23;;;;;;;;;;;;;;;18.48;95.88;95555.97;10478171;28;1932;-74
2022/07/01 05:23:49;;;;;;;;;;;;;;;18.83;95.45;95594.69;10472782;28;2066;-76
2022/07/01 05:28:52;;;;;;;;;;;;;;;18.88;94.94;95600.75;10472722;28;1962;-75
2022/07/01 05:33:57;;;;;;;;;;;;;;;18.77;94.65;95594.09;10474908;28;1967;-76
2022/07/01 05:39:06;;;;;;;;;;;;;;;18.52;95.30;95581.41;10472351;28;2021;-73
2022/07/01 05:44:11;;;;;;;;;;;;;;;18.39;96.26;95609.66;10475930;28;1830;-74
2022/07/01 05:49:15;;;;;;;;;;;;;;;18.81;95.35;95621.47;10469318;28;2020;-75
2022/07/01 05:54:20;;;;;;;;;;;;;;;18.99;94.92;95638.50;10463204;28;1932;-75
2022/07/01 05:59:24;;;;;;;;;;;;;;;19.24;94.30;95651.16;10464254;28;1994;-76
2022/07/01 06:04:28;;;;;;;;;;;;;;;19.45;93.56;95660.09;10475351;28;1963;-78
2022/07/01 06:09:31;;;;;;;;;;;;;;;19.67;90.64;95647.31;10490671;28;1935;-77
2022/07/01 06:14:37;;;;;;;;;;;;;;;19.76;90.39;95645.28;10473622;28;2503;-78
2022/07/01 06:19:40;;;;;;;;;;;;;;;21.40;82.12;95656.16;10472489;28;1956;-78
2022/07/01 06:24:44;;;;;;;;;;;;;;;21.45;78.43;95664.13;10473983;28;1774;-78
2022/07/01 06:29:48;;;;;;;;;;;;;;;20.83;81.48;95695.38;10478783;28;1932;-79
2022/07/01 06:34:52;;;;;;;;;;;;;;;20.07;84.72;95704.06;10476662;28;1923;-80
2022/07/01 06:39:55;;;;;;;;;;;;;;;19.42;87.91;95701.69;10479717;28;1909;-77
2022/07/01 06:44:59;;;;;;;;;;;;;;;19.65;87.68;95709.53;10464210;28;1989;-77
2022/07/01 06:50:02;;;;;;;;;;;;;;;19.40;88.67;95708.56;10482167;28;1717;-81
2022/07/01 06:55:06;;;;;;;;;;;;;;;19.64;86.55;95692.38;10462371;28;1844;-70
2022/07/01 07:00:11;;;;;;;;;;;;;;;19.48;87.36;95688.66;10464484;28;1977;-72
2022/07/01 07:05:14;;;;;;;;;;;;;;;19.36;88.97;95694.03;10462769;28;1841;-71
2022/07/01 07:10:18;;;;;;;;;;;;;;;19.15;90.05;95686.63;10464821;28;1751;-71
2022/07/01 07:15:21;;;;;;;;;;;;;;;19.32;88.98;95701.25;10461170;28;2318;-70
2022/07/01 07:20:27;;;;;;;;;;;;;;;19.76;86.29;95693.59;10464406;28;1985;-71
2022/07/01 07:25:31;;;;;;;;;;;;;;;19.71;88.45;95708.22;10464372;28;1997;-70
2022/07/01 07:30:36;;;;;;;;;;;;;;;19.80;89.30;95702.72;10453728;28;2051;-72
2022/07/01 07:35:39;;;;;;;;;;;;;;;18.01;100.00;95720.03;10460118;28;1852;-75
2022/07/01 07:40:43;;;;;;;;;;;;;;;17.52;100.00;95707.69;10468707;28;1914;-74
2022/07/01 07:45:46;;;;;;;;;;;;;;;17.56;100.00;95703.22;10421020;28;1103452;-74
2022/07/01 07:50:50;;;;;;;;;;;;;;;17.98;100.00;95715.22;10468947;28;2028;-75
2022/07/01 07:55:54;;;;;;;;;;;;;;;17.88;100.00;95720.16;10469639;28;1835;-75
2022/07/01 08:00:58;;;;;;;;;;;;;;;17.63;100.00;95747.03;10479816;28;1954;-74
2022/07/01 08:06:01;;;;;;;;;;;;;;;16.90;100.00;95764.91;10462596;28;1825;-74
2022/07/01 08:11:06;;;;;;;;;;;;;;;16.55;100.00;95786.44;10463960;28;1857;-73
2022/07/01 08:16:09;;;;;;;;;;;;;;;16.10;100.00;95804.66;10467038;28;2513;-75
2022/07/01 08:21:12;;;;;;;;;;;;;;;15.39;100.00;95820.56;10456716;28;1910;-74
2022/07/01 08:26:17;;;;;;;;;;;;;;;14.92;100.00;95844.22;10480072;28;1861;-74
2022/07/01 08:31:20;;;;;;;;;;;;;;;14.31;100.00;95865.00;10483635;28;1917;-74
2022/07/01 08:36:24;;;;;;;;;;;;;;;13.89;100.00;95879.41;10470838;28;1884;-76
2022/07/01 08:41:27;;;;;;;;;;;;;;;13.65;100.00;95894.88;10466373;28;1973;-76
2022/07/01 08:46:30;;;;;;;;;;;;;;;13.57;100.00;95892.81;10462421;28;1936;-75
2022/07/01 08:51:35;;;;;;;;;;;;;;;14.11;100.00;95911.25;10473325;28;1875;-76
2022/07/01 08:56:41;;;;;;;;;;;;;;;14.26;100.00;95894.81;10469415;28;1960;-75
2022/07/01 09:01:45;;;;;;;;;;;;;;;14.36;100.00;95898.47;10466861;28;1988;-76
2022/07/01 09:06:48;;;;;;;;;;;;;;;14.11;100.00;95892.34;10478023;28;1800;-75
2022/07/01 09:11:54;;;;;;;;;;;;;;;14.42;100.00;95889.97;10474350;28;1777;-72
2022/07/01 09:16:57;;;;;;;;;;;;;;;14.53;100.00;95894.16;10466247;28;2108;-74
2022/07/01 09:22:02;;;;;;;;;;;;;;;15.08;100.00;95891.59;10472395;28;1913;-74
2022/07/01 09:27:09;;;;;;;;;;;;;;;15.26;100.00;95905.31;10480109;28;1853;-73
2022/07/01 09:32:12;;;;;;;;;;;;;;;14.98;100.00;95899.06;10468883;28;1932;-75
2022/07/01 09:37:16;;;;;;;;;;;;;;;14.60;100.00;95907.28;10475691;28;2107;-74
2022/07/01 09:42:20;;;;;;;;;;;;;;;14.35;100.00;95897.66;10466998;28;2006;-76
2022/07/01 09:47:23;;;;;;;;;;;;;;;14.43;100.00;95915.91;10476168;28;1798;-75
2022/07/01 09:52:27;;;;;;;;;;;;;;;14.38;100.00;95918.72;10473006;28;2200;-74
2022/07/01 09:57:40;;;;;;;;;;;;;;;14.21;100.00;95918.44;10473144;28;1814;-75
2022/07/01 10:02:44;;;;;;;;;;;;;;;14.31;100.00;95929.06;10472881;28;2004;-74
2022/07/01 10:07:48;;;;;;;;;;;;;;;14.53;100.00;95942.84;10472942;28;1852;-73
2022/07/01 10:12:52;;;;;;;;;;;;;;;14.59;100.00;95941.66;10467437;28;1780;-73
2022/07/01 10:17:56;;;;;;;;;;;;;;;14.69;100.00;95945.28;10462471;28;2244;-73
2022/07/01 10:22:59;;;;;;;;;;;;;;;14.71;100.00;95960.16;10468588;28;1954;-74
2022/07/01 10:28:02;;;;;;;;;;;;;;;14.96;100.00;95963.53;10466157;28;1877;-74
2022/07/01 10:33:06;;;;;;;;;;;;;;;14.95;100.00;95972.75;10480715;28;1788;-74
2022/07/01 10:38:10;;;;;;;;;;;;;;;15.41;100.00;95973.56;10465279;28;1855;-74
2022/07/01 10:43:14;;;;;;;;;;;;;;;15.36;100.00;95978.28;10466990;28;1922;-74
2022/07/01 10:48:19;;;;;;;;;;;;;;;15.53;100.00;95973.06;10469213;28;1872;-73
2022/07/01 10:53:22;;;;;;;;;;;;;;;15.79;100.00;95975.31;10468467;28;1913;-73
2022/07/01 10:58:25;;;;;;;;;;;;;;;15.87;100.00;95969.19;10458000;28;1853;-75
2022/07/01 11:03:29;;;;;;;;;;;;;;;15.34;100.00;95973.16;10465847;28;1989;-75
2022/07/01 11:08:32;;;;;;;;;;;;;;;15.53;100.00;95972.28;10470973;28;1869;-74
2022/07/01 11:13:35;;;;;;;;;;;;;;;15.12;100.00;95983.81;10475092;28;2528;-73
2022/07/01 11:18:39;;;;;;;;;;;;;;;14.57;100.00;95995.28;10463298;28;1878;-75
2022/07/01 11:23:43;;;;;;;;;;;;;;;14.65;100.00;95979.47;10472087;28;1979;-74
2022/07/01 11:28:46;;;;;;;;;;;;;;;14.83;100.00;95990.28;10466935;28;1885;-73
2022/07/01 11:33:51;;;;;;;;;;;;;;;15.61;100.00;95993.25;10472696;28;1831;-73
2022/07/01 11:44:15;;;;;;;;;;;;;;;15.02;100.00;95994.84;10477231;28;1925;-76
2022/07/01 11:49:23;;;;;;;;;;;;;;;14.88;100.00;96009.09;10462764;28;1981;-74
2022/07/01 11:54:27;;;;;;;;;;;;;;;14.65;100.00;95999.22;10455770;28;1887;-74
2022/07/01 11:59:29;;;;;;;;;;;15.40;99.90;;;14.02;100.00;96021.94;10477876;28;1961;-74
2022/07/01 12:04:33;;;;;;;;;;;;;;;13.56;100.00;96029.75;10466784;28;1960;-78
2022/07/01 12:09:37;;;;;;;;;;;;;;;13.63;100.00;96022.13;10467243;28;1896;-80
2022/07/01 12:14:41;;;;;;;;;;;;;;;14.17;100.00;96020.13;10469158;28;2504;-76
2022/07/01 12:19:46;;;;;;;;;;;;;;;14.73;100.00;96014.78;10464612;28;1944;-78
2022/07/01 12:24:49;;;;;;;;;;;;;;;14.81;100.00;96024.13;10474965;28;1812;-78
2022/07/01 12:29:52;;;;;;;;;;;;;;;14.45;100.00;96043.56;10478844;28;1950;-76
2022/07/01 12:34:56;;;;;;;;;;;;;;;14.18;100.00;96032.53;10478569;28;1935;-78
2022/07/01 12:40:04;;;;;;;;;;;;;;;14.49;100.00;96039.19;10522455;28;1961;-78
2022/07/01 12:45:08;;;;;;;;;;;;;;;14.58;100.00;96058.28;10483641;28;1940;-77
2022/07/01 12:50:14;;;;;;;;;;;;;;;14.50;100.00;96089.47;10483666;28;1825;-77
2022/07/01 12:55:17;;;;;;;;;;;;;;;14.31;100.00;96115.66;10478646;28;1830;-78
2022/07/01 13:00:21;;;;;;;;;;;;;;;14.16;100.00;96099.63;10510181;28;1886;-78
2022/07/01 13:05:24;;;;;;;;;;;;;;;14.04;100.00;96098.13;10538673;28;1365;-79
2022/07/01 13:10:30;;;;;;;;;;;;;;;14.15;100.00;96092.59;10515091;28;1813;-80
2022/07/01 13:15:35;;;;;;;;;;;;;;;13.72;100.00;96052.00;10481829;28;2496;-80
2022/07/01 13:20:40;;;;;;;;;;;;;;;13.73;100.00;96042.78;10479968;28;2403;-80
2022/07/01 13:25:43;;;;;;;;;;;;;;;14.07;100.00;96038.09;10480578;28;1780;-82
2022/07/01 13:30:47;;;;;;;;;;;;;;;14.12;100.00;96076.94;10485487;28;1723;-82
2022/07/01 13:35:50;;;;;;;;;;;;;;;13.97;100.00;96051.72;10485855;28;1856;-80
2022/07/01 13:40:54;;;;;;;;;;;;;;;13.94;100.00;96049.59;10479961;28;1894;-80
2022/07/01 13:45:57;;;;;;;;;;;;;;;14.14;100.00;96077.50;10478022;28;1845;-80
2022/07/01 13:51:01;;;;;;;;;;;;;;;14.22;100.00;96076.84;10481510;28;1842;-78
2022/07/01 13:56:05;;;;;;;;;;;;;;;14.25;100.00;96087.06;10476287;28;1785;-76
2022/07/01 14:01:08;;;;;;;;;;;;;;;14.31;100.00;96124.59;10477890;28;1910;-76
2022/07/01 14:06:12;;;;;;;;;;;;;;;14.15;100.00;96130.47;10477221;28;1925;-77
2022/07/01 14:11:20;;;;;;;;;;;;;;;14.16;100.00;96118.53;10479579;28;1870;-80
2022/07/01 14:16:24;;;;;;;;;;;;;;;14.22;100.00;96125.50;10478807;28;2333;-78
2022/07/01 14:21:28;;;;;;;;;;;;;;;14.31;100.00;96140.00;10486277;28;1906;-79
2022/07/01 14:26:31;;;;;;;;;;;;;;;14.29;100.00;96139.47;10468811;28;1890;-80
2022/07/01 14:31:35;;;;;;;;;;;;;;;14.17;100.00;96150.69;10480806;28;1825;-77
2022/07/01 14:36:39;;;;;;;;;;;;;;;14.14;100.00;96155.88;10473198;28;1798;-77
2022/07/01 14:41:43;;;;;;;;;;;;;;;13.84;100.00;96157.78;10471288;28;1980;-79
2022/07/01 14:46:46;;;;;;;;;;;;;;;13.92;100.00;96173.38;10481410;28;1857;-79
2022/07/01 14:51:50;;;;;;;;;;;;;;;14.15;100.00;96146.69;10494072;28;1865;-78
2022/07/01 14:56:53;;;;;;;;;;;;;;;14.60;100.00;96100.19;10477846;28;1802;-79
2022/07/01 15:02:02;;;;;;;;;;;;;;;14.92;100.00;96117.59;10473192;28;1918;-77
2022/07/01 15:07:05;;;;;;;;;;;;;;;14.58;100.00;96086.16;10492232;28;2040;-79
2022/07/01 15:12:09;;;;;;;;;;;;;;;14.23;100.00;96094.66;10476645;28;1773;-74
2022/07/01 15:17:12;;;;;;;;;;;;;;;14.49;100.00;96146.59;10475633;28;1847;-77
2022/07/01 15:22:16;;;;;;;;;;;;;;;14.60;100.00;96170.53;10480045;28;1918;-75
2022/07/01 15:27:19;;;;;;;;;;;;;;;15.12;100.00;96176.88;10479310;28;1893;-78
2022/07/01 15:32:23;;;;;;;;;;;;;;;16.06;100.00;96189.50;10485728;28;1878;-80
2022/07/01 15:37:29;;;;;;;;;;;;;;;16.21;100.00;96181.09;10481096;28;1818;-76
2022/07/01 15:42:42;;;;;;;;;;;;;;;16.13;100.00;96181.00;10486146;28;2005;-78
2022/07/01 15:48:08;;;;;;;;;;;;;;;16.11;100.00;96184.00;10467768;28;1813;-77
2022/07/01 15:53:14;;;;;;;;;;;;;;;16.41;100.00;96185.38;10474308;28;1818;-77
2022/07/01 15:58:17;;;;;;;;;;;;;;;16.80;100.00;96186.00;10479788;28;1805;-75
2022/07/01 16:03:20;;;;;;;;;;;;;;;16.73;100.00;96181.78;10481516;28;1914;-79
2022/07/01 16:08:24;;;;;;;;;;;;;;;16.79;100.00;96176.22;10481621;28;1790;-78
2022/07/01 16:13:27;;;;;;;;;;;;;;;16.60;100.00;96176.28;10492226;28;1795;-78
2022/07/01 16:18:31;;;;;;;;;;;;;;;16.50;100.00;96188.16;10488897;28;2125;-77
2022/07/01 16:23:35;;;;;;;;;;;;;;;16.48;100.00;96185.75;10478389;28;1890;-77
2022/07/01 16:28:39;;;;;;;;;;;;;;;16.32;100.00;96197.19;10485959;28;1849;-77
2022/07/01 16:33:43;;;;;;;;;;;;;;;16.12;100.00;96212.72;10480158;28;1903;-80
2022/07/01 16:38:46;;;;;;;;;;;;;;;15.99;100.00;96204.56;10470366;28;1923;-77
2022/07/01 16:43:50;;;;;;;;;;;;;;;16.24;100.00;96200.59;10483465;28;1922;-77
2022/07/01 16:48:53;;;;;;;;;;;;;;;16.26;100.00;96198.38;10487500;28;1788;-77
2022/07/01 16:53:56;;;;;;;;;;;;;;;16.72;100.00;96196.44;10498767;28;1855;-76
2022/07/01 16:59:01;;;;;;;;;;;;;;;17.21;100.00;96200.31;10488084;28;1810;-77
2022/07/01 17:04:04;;;;;;;;;;;;;;;17.03;100.00;96198.53;10483769;28;1918;-76
2022/07/01 17:09:14;;;;;;;;;;;;;;;16.60;99.48;96195.28;10479830;28;1729;-78
2022/07/01 17:14:21;;;;;;;;;;;;;;;16.47;100.00;96194.97;10471332;28;1869;-77
2022/07/01 17:19:28;;;;;;;;;;;;;;;16.54;100.00;96205.47;10478663;28;1802;-75
2022/07/01 17:24:31;;;;;;;;;;;;;;;16.82;100.00;96210.91;10470994;28;2017;-77
2022/07/01 17:29:35;;;;;;;;;;;;;;;16.39;100.00;96216.59;10480132;28;1865;-76
2022/07/01 17:34:39;;;;;;;;;;;;;;;16.40;99.01;96226.34;10468245;28;1781;-77
2022/07/01 17:39:43;;;;;;;;;;;;;;;16.21;100.00;96232.63;10474503;28;1842;-77
2022/07/01 17:44:47;;;;;;;;;;;;;;;16.61;100.00;96232.22;10482614;28;1941;-77
2022/07/01 17:49:50;;;;;;;;;;;;;;;16.49;100.00;96232.69;10474237;28;1745;-76
2022/07/01 17:54:56;;;;;;;;;;;;;;;16.64;100.00;96226.97;10470425;28;1820;-76
2022/07/01 17:59:59;;;;;;;;;;;;;;;16.33;100.00;96234.06;10468598;28;1903;-76
2022/07/01 18:05:03;;;;;;;;;;;;;;;15.81;100.00;96241.44;10473050;28;1973;-77
2022/07/01 18:10:07;;;;;;;;;;;;;;;15.55;100.00;96241.81;10481745;28;1835;-77
2022/07/01 18:15:11;;;;;;;;;;;;;;;15.39;100.00;96246.63;10472573;28;1757;-76
2022/07/01 18:20:15;;;;;;;;;;;;;;;15.25;100.00;96242.25;10470405;28;1872;-77
2022/07/01 18:25:18;;;;;;;;;;;;;;;15.12;100.00;96231.03;10475354;28;1926;-78
2022/07/01 18:30:22;;;;;;;;;;;;;;;15.03;100.00;96235.50;10476529;28;1798;-77
2022/07/01 18:35:26;;;;;;;;;;;;;;;14.83;100.00;96241.16;10474032;28;1851;-78
2022/07/01 18:40:32;;;;;;;;;;;;;;;14.66;100.00;96246.22;10480251;28;1862;-78
2022/07/01 18:45:36;;;;;;;;;;;;;;;14.51;100.00;96252.63;10485735;28;1917;-77
2022/07/01 18:50:40;;;;;;;;;;;;;;;14.46;100.00;96258.03;10473253;28;1838;-76
2022/07/01 18:55:44;;;;;;;;;;;;;;;14.37;100.00;96251.63;10471654;28;1797;-77
2022/07/01 19:00:48;;;;;;;;;;;;;;;14.33;100.00;96263.03;10484647;28;1949;-77
2022/07/01 19:05:51;;;;;;;;;;;;;;;14.25;100.00;96266.34;10476499;28;1967;-77
2022/07/01 19:10:54;;;;;;;;;;;;;;;14.16;100.00;96267.25;10476812;28;1798;-76
2022/07/01 19:15:58;;;;;;;;;;;;;;;14.06;100.00;96263.56;10474935;28;1862;-79
2022/07/01 19:21:02;;;;;;;;;;;;;;;14.06;100.00;96279.78;10477659;28;1872;-79
2022/07/01 19:26:06;;;;;;;;;;;;;;;13.97;100.00;96267.94;10470921;28;1902;-78
2022/07/01 19:31:09;;;;;;;;;;;;;;;13.91;100.00;96274.47;10471723;28;1810;-78
2022/07/01 19:36:13;;;;;;;;;;;;;;;13.76;100.00;96275.41;10477524;28;1847;-76
2022/07/01 19:41:23;;;;;;;;;;;;;;;13.63;100.00;96281.44;10475706;28;1803;-77
2022/07/01 19:46:27;;;;;;;;;;;;;;;13.49;100.00;96289.34;10480412;28;1906;-76
2022/07/01 19:51:30;;;;;;;;;;;;;;;13.47;100.00;96293.41;10480414;28;1918;-77
2022/07/01 19:56:36;;;;;;;;;;;;;;;13.36;100.00;96313.44;10471239;28;1966;-79
2022/07/01 20:01:40;;;;;;;;;;;;;;;13.29;100.00;96313.75;10472213;28;1819;-77
2022/07/01 20:06:43;;;;;;;;;;;;;;;13.21;100.00;96322.44;10470771;28;1918;-77
2022/07/01 20:11:47;;;;;;;;;;;;;;;13.09;100.00;96320.00;10477199;28;1862;-79
2022/07/01 20:16:50;;;;;;;;;;;;;;;13.24;100.00;96343.50;10484837;28;1777;-78
2022/07/01 20:21:54;;;;;;;;;;;;;;;13.16;100.00;96341.31;10476204;28;1972;-77
2022/07/01 20:26:58;;;;;;;;;;;;;;;12.97;100.00;96331.13;10463675;28;1801;-78
2022/07/01 20:32:01;;;;;;;;;;;;;;;12.95;100.00;96333.28;10477905;28;1848;-79
2022/07/01 20:37:06;;;;;;;;;;;;;;;12.99;100.00;96342.47;10470224;28;1840;-77
2022/07/01 20:42:10;;;;;;;;;;;;;;;13.19;100.00;96348.88;10470655;28;1945;-77
2022/07/01 20:47:15;;;;;;;;;;;;;;;13.11;100.00;96352.16;10486438;28;1865;-76
2022/07/01 20:52:30;;;;;;;;;;;;;;;13.06;100.00;96358.38;10479326;28;1965;-77
2022/07/01 20:57:34;;;;;;;;;;;;;;;13.06;100.00;96357.56;10471640;28;1664;-77
2022/07/01 21:02:37;;;;;;;;;;;;;;;13.07;100.00;96364.56;10478200;28;1981;-77
2022/07/01 21:07:47;;;;;;;;;;;;;;;13.11;100.00;96365.66;10504686;28;1718;-79
2022/07/01 21:12:51;;;;;;;;;;;;;;;12.94;100.00;96361.38;10486936;28;1815;-78
2022/07/01 21:17:54;;;;;;;;;;;;;;;12.95;100.00;96367.56;10479646;28;1729;-76
2022/07/01 21:22:59;;;;;;;;;;;;;;;12.91;100.00;96363.78;10482863;28;1989;-78
2022/07/01 21:28:04;;;;;;;;;;;;;;;12.87;100.00;96366.25;10478765;28;1825;-76
2022/07/01 21:33:07;;;;;;;;;;;;;;;12.87;100.00;96360.84;10471292;28;1894;-77
2022/07/01 21:38:11;;;;;;;;;;;;;;;12.87;100.00;96355.44;10482767;28;1808;-76
2022/07/01 21:43:15;;;;;;;;;;;;;;;12.76;100.00;96358.44;10483993;28;1968;-73
2022/07/01 21:48:19;;;;;;;;;;;;;;;12.75;100.00;96356.81;10495935;28;1733;-78
2022/07/01 21:53:23;;;;;;;;;;;;;;;12.78;100.00;96361.66;10474070;28;1842;-77
2022/07/01 21:58:27;;;;;;;;;;;;;;;12.86;100.00;96358.44;10480322;28;1910;-77
2022/07/01 22:03:30;;;;;;;;;;;;;;;12.79;100.00;96364.09;10473932;28;1899;-78
2022/07/01 22:08:34;;;;;;;;;;;;;;;12.70;100.00;96365.72;10480517;28;1888;-77
2022/07/01 22:13:38;;;;;;;;;;;;;;;12.63;100.00;96366.00;10478682;28;1941;-76
2022/07/01 22:18:41;;;;;;;;;;;;;;;12.67;100.00;96369.78;10497380;28;1772;-77
2022/07/01 22:23:44;;;;;;;;;;;;;;;12.60;100.00;96368.47;10477906;28;1910;-77
2022/07/01 22:28:48;;;;;;;;;;;;;;;12.51;100.00;96365.47;10467893;28;1869;-76
2022/07/01 22:33:51;;;;;;;;;;;;;;;12.51;100.00;96380.84;10474857;28;1985;-74
2022/07/01 22:38:54;;;;;;;;;;;;;;;12.43;100.00;96379.50;10475057;28;1830;-76
2022/07/01 22:43:58;;;;;;;;;;;;;;;12.33;100.00;96377.63;10476646;28;1914;-76
2022/07/01 22:49:01;;;;;;;;;;;;;;;12.32;100.00;96375.19;10475556;28;1791;-77
2022/07/01 22:54:05;;;;;;;;;;;;;;;12.35;100.00;96380.06;10478762;28;1701;-76
2022/07/01 22:59:08;;;;;;;;;;;;;;;12.34;100.00;96379.25;10471450;28;1853;-77
2022/07/01 23:04:13;;;;;;;;;;;;;;;12.38;100.00;96368.72;10476162;28;1891;-76
2022/07/01 23:09:16;;;;;;;;;;;;;;;12.32;100.00;96375.19;10474487;28;1881;-77
2022/07/01 23:19:44;;;;;;;;;;;;;;;12.31;100.00;96379.78;10475970;28;1855;-76
2022/07/01 23:24:48;;;;;;;;;;;;;;;12.39;100.00;96381.13;10475162;28;2067;-76
2022/07/01 23:29:51;;;;;;;;;;;;;;;12.35;100.00;96380.06;10475044;28;1899;-77
2022/07/01 23:34:55;;;;;;;;;;;;;;;12.27;100.00;96384.09;10469855;28;1799;-76
2022/07/01 23:39:58;;;;;;;;;;;;;;;12.29;100.00;96381.94;10471611;28;1863;-76
2022/07/01 23:45:02;;;;;;;;;;;;;;;12.17;100.00;96386.78;10471343;28;1906;-77
2022/07/01 23:50:07;;;;;;;;;;;;;;;12.13;100.00;96383.00;10478841;28;1822;-77
2022/07/01 23:55:10;;;;;;;;;;;;;;;12.16;100.00;96385.19;10471166;28;1729;-75
